createdAt,value
2023-01-30T00:02:39.991Z,17.03
2023-01-30T00:07:41.836Z,17.20
2023-01-30T00:12:43.957Z,17.60
2023-01-30T00:17:45.768Z,17.10
2023-01-30T00:23:00.173Z,18.07
2023-01-30T00:28:02.619Z,16.07
2023-01-30T00:33:04.717Z,18.20
2023-01-30T00:38:06.551Z,15.93
2023-01-30T00:43:30.794Z,17.43
2023-01-30T00:48:32.591Z,17.27
2023-01-30T00:53:34.473Z,15.10
2023-01-30T00:58:36.306Z,16.80
2023-01-30T01:03:38.425Z,17.47
2023-01-30T01:08:40.441Z,16.47
2023-01-30T01:13:42.415Z,15.27
2023-01-30T01:18:44.294Z,14.77
2023-01-30T01:23:51.477Z,15.77
2023-01-30T01:28:57.851Z,15.63
2023-01-30T01:33:59.828Z,16.07
2023-01-30T01:39:03.443Z,14.87
2023-01-30T01:44:08.127Z,15.07
2023-01-30T01:49:32.413Z,14.73
2023-01-30T01:54:39.622Z,15.10
2023-01-30T01:59:48.478Z,14.90
2023-01-30T02:05:02.902Z,15.00
2023-01-30T02:10:08.445Z,13.20
2023-01-30T02:15:11.033Z,14.27
2023-01-30T02:20:40.721Z,13.80
2023-01-30T02:26:27.034Z,14.37
2023-01-30T02:31:38.772Z,14.17
2023-01-30T02:37:05.624Z,13.57
2023-01-30T02:42:56.529Z,11.27
2023-01-30T02:48:24.542Z,12.57
2023-01-30T02:53:31.135Z,13.87
2023-01-30T02:58:41.285Z,13.23
2023-01-30T03:03:52.372Z,13.63
2023-01-30T03:09:26.907Z,12.93
2023-01-30T03:14:40.034Z,12.50
2023-01-30T03:19:42.913Z,11.83
2023-01-30T03:24:46.121Z,11.40
2023-01-30T03:29:48.295Z,13.87
2023-01-30T03:34:50.771Z,12.23
2023-01-30T03:39:53.289Z,13.00
2023-01-30T03:44:55.543Z,12.07
2023-01-30T03:49:57.802Z,11.50
2023-01-30T03:54:59.660Z,10.47
2023-01-30T04:00:01.869Z,11.27
2023-01-30T04:05:06.264Z,10.43
2023-01-30T04:10:08.830Z,9.27
2023-01-30T04:15:11.881Z,11.07
2023-01-30T04:20:36.975Z,10.40
2023-01-30T04:25:39.318Z,9.83
2023-01-30T04:30:42.530Z,9.27
2023-01-30T04:36:09.568Z,9.87
2023-01-30T04:41:12.073Z,9.80
2023-01-30T04:46:17.011Z,9.63
2023-01-30T04:51:19.146Z,8.50
2023-01-30T04:56:21.828Z,8.67
2023-01-30T05:01:34.518Z,8.77
2023-01-30T05:06:37.059Z,8.90
2023-01-30T05:11:38.999Z,8.97
2023-01-30T05:16:40.918Z,8.97
2023-01-30T05:21:42.886Z,8.43
2023-01-30T05:26:44.768Z,7.50
2023-01-30T05:31:46.898Z,8.20
2023-01-30T05:36:48.906Z,8.40
2023-01-30T05:41:50.667Z,8.53
2023-01-30T05:46:52.553Z,8.00
2023-01-30T05:51:54.326Z,8.30
2023-01-30T05:56:56.317Z,7.73
2023-01-30T06:01:58.347Z,7.87
2023-01-30T06:07:00.269Z,6.93
2023-01-30T06:12:02.189Z,6.73
2023-01-30T06:17:04.138Z,7.03
2023-01-30T06:22:06.108Z,6.87
2023-01-30T06:27:07.879Z,6.67
2023-01-30T06:32:10.586Z,7.00
2023-01-30T06:37:12.411Z,6.77
2023-01-30T06:42:14.198Z,5.67
2023-01-30T06:47:16.048Z,6.53
2023-01-30T06:52:18.038Z,6.60
2023-01-30T06:57:19.995Z,6.17
2023-01-30T07:02:21.845Z,5.77
2023-01-30T07:07:23.764Z,4.93
2023-01-30T07:12:26.806Z,5.93
2023-01-30T07:17:28.823Z,5.57
2023-01-30T07:22:30.616Z,5.63
2023-01-30T07:27:32.955Z,5.83
2023-01-30T07:32:34.701Z,4.93
2023-01-30T07:37:36.515Z,4.70
2023-01-30T07:42:38.473Z,4.77
2023-01-30T07:47:40.611Z,4.70
2023-01-30T07:52:42.955Z,4.50
2023-01-30T07:57:44.958Z,4.60
2023-01-30T08:02:47.004Z,4.80
2023-01-30T08:07:49.018Z,4.70
2023-01-30T08:12:51.583Z,4.17
2023-01-30T08:17:57.315Z,4.13
2023-01-30T08:23:00.570Z,3.97
2023-01-30T08:28:03.500Z,3.23
2023-01-30T08:33:05.429Z,2.97
2023-01-30T08:38:09.060Z,3.33
2023-01-30T08:43:11.008Z,3.27
2023-01-30T08:48:13.013Z,2.17
2023-01-30T08:53:14.897Z,2.70
2023-01-30T08:58:17.150Z,2.57
2023-01-30T09:03:19.578Z,2.93
2023-01-30T09:08:21.610Z,2.37
2023-01-30T09:13:23.419Z,2.83
2023-01-30T09:18:25.901Z,1.97
2023-01-30T09:23:27.826Z,1.83
2023-01-30T09:28:29.848Z,2.00
2023-01-30T09:33:32.131Z,1.90
2023-01-30T09:38:34.053Z,2.63
2023-01-30T09:43:35.839Z,2.00
2023-01-30T09:49:02.682Z,2.00
2023-01-30T09:54:10.386Z,1.83
2023-01-30T09:59:29.412Z,1.73
2023-01-30T10:04:34.932Z,3.20
2023-01-30T10:10:06.136Z,1.77
2023-01-30T10:15:45.507Z,1.97
2023-01-30T10:21:15.557Z,2.27
2023-01-30T10:26:21.874Z,2.20
2023-01-30T10:31:28.284Z,2.33
2023-01-30T10:36:51.824Z,1.83
2023-01-30T10:42:06.898Z,2.10
2023-01-30T10:47:48.261Z,1.93
2023-01-30T10:52:56.494Z,2.10
2023-01-30T10:58:19.132Z,1.53
2023-01-30T11:04:06.353Z,1.60
2023-01-30T11:09:08.909Z,2.60
2023-01-30T11:14:12.468Z,2.23
2023-01-30T11:19:20.900Z,2.00
2023-01-30T11:24:38.172Z,2.67
2023-01-30T11:29:40.386Z,1.83
2023-01-30T11:34:44.055Z,2.10
2023-01-30T11:39:52.031Z,1.80
2023-01-30T11:45:15.566Z,2.10
2023-01-30T11:50:25.232Z,2.40
2023-01-30T11:55:39.760Z,1.97
2023-01-30T12:00:46.190Z,1.90
2023-01-30T12:05:48.433Z,1.63
2023-01-30T12:10:55.076Z,2.07
2023-01-30T12:16:39.062Z,2.17
2023-01-30T12:21:49.407Z,2.47
2023-01-30T12:27:03.151Z,2.03
2023-01-30T12:32:11.647Z,2.37
2023-01-30T12:37:47.539Z,2.40
2023-01-30T12:42:52.389Z,2.67
2023-01-30T12:48:25.053Z,2.13
2023-01-30T12:53:54.878Z,2.17
2023-01-30T12:59:15.358Z,1.87
2023-01-30T13:05:14.878Z,2.93
2023-01-30T13:10:30.692Z,2.07
2023-01-30T13:15:43.744Z,1.77
2023-01-30T13:21:31.667Z,2.20
2023-01-30T13:26:37.585Z,1.77
2023-01-30T13:31:52.138Z,2.43
2023-01-30T13:37:00.354Z,2.03
2023-01-30T13:42:08.442Z,1.97
2023-01-30T13:47:20.045Z,3.03
2023-01-30T13:52:41.941Z,2.17
2023-01-30T13:58:00.592Z,2.20
2023-01-30T14:03:08.783Z,2.90
2023-01-30T14:08:17.391Z,2.77
2023-01-30T14:13:19.282Z,2.53
2023-01-30T14:18:28.560Z,1.50
2023-01-30T14:23:33.874Z,2.73
2023-01-30T14:28:47.777Z,1.90
2023-01-30T14:33:51.190Z,2.20
2023-01-30T14:39:40.911Z,2.93
2023-01-30T14:45:13.522Z,2.10
2023-01-30T14:50:23.072Z,1.83
2023-01-30T14:55:29.492Z,2.17
2023-01-30T15:00:36.945Z,2.50
2023-01-30T15:05:44.138Z,2.47
2023-01-30T15:10:49.224Z,1.90
2023-01-30T15:16:40.194Z,1.17
2023-01-30T15:21:51.306Z,2.43
2023-01-30T15:27:38.233Z,1.97
2023-01-30T15:32:42.229Z,2.20
2023-01-30T15:37:50.582Z,2.17
2023-01-30T15:43:01.907Z,2.40
2023-01-30T15:48:37.476Z,1.93
2023-01-30T15:53:43.440Z,2.43
2023-01-30T15:58:45.823Z,3.07
2023-01-30T16:03:50.154Z,1.77
2023-01-30T16:09:03.848Z,2.20
2023-01-30T16:14:07.196Z,2.30
2023-01-30T16:19:16.600Z,2.47
2023-01-30T16:24:24.732Z,2.30
2023-01-30T16:29:28.721Z,3.03
2023-01-30T16:34:34.286Z,2.90
2023-01-30T16:39:37.879Z,2.70
2023-01-30T16:44:39.902Z,3.00
2023-01-30T16:49:46.686Z,3.00
2023-01-30T16:55:00.198Z,2.77
2023-01-30T17:00:23.470Z,3.40
2023-01-30T17:05:30.041Z,2.67
2023-01-30T17:10:41.113Z,2.40
2023-01-30T17:15:43.307Z,2.40
2023-01-30T17:20:51.015Z,2.10
2023-01-30T17:25:53.051Z,3.07
2023-01-30T17:30:55.108Z,3.23
2023-01-30T17:36:01.082Z,3.27
2023-01-30T17:41:03.931Z,1.90
2023-01-30T17:46:05.812Z,2.20
2023-01-30T17:51:08.552Z,2.40
2023-01-30T17:56:23.119Z,2.67
2023-01-30T18:01:25.106Z,2.80
2023-01-30T18:06:29.817Z,2.70
2023-01-30T18:11:32.323Z,2.70
2023-01-30T18:16:34.494Z,2.43
2023-01-30T18:21:38.553Z,2.80
2023-01-30T18:26:41.449Z,2.50
2023-01-30T18:31:43.585Z,2.87
2023-01-30T18:36:45.500Z,3.07
2023-01-30T18:41:47.445Z,2.30
2023-01-30T18:46:50.265Z,2.80
2023-01-30T18:51:52.067Z,2.93
2023-01-30T18:56:53.903Z,2.60
2023-01-30T19:01:55.711Z,2.90
2023-01-30T19:06:57.642Z,2.70
2023-01-30T19:12:18.263Z,3.17
2023-01-30T19:17:20.212Z,2.97
2023-01-30T19:22:22.409Z,3.03
2023-01-30T19:27:24.628Z,3.37
2023-01-30T19:32:26.674Z,2.60
2023-01-30T19:37:28.457Z,3.20
2023-01-30T19:42:30.292Z,3.70
2023-01-30T19:47:32.173Z,3.07
2023-01-30T19:52:34.058Z,2.77
2023-01-30T19:57:35.944Z,3.40
2023-01-30T20:02:38.391Z,3.90
2023-01-30T20:07:40.240Z,3.97
2023-01-30T20:12:42.396Z,3.93
2023-01-30T20:17:44.219Z,4.47
2023-01-30T20:22:46.077Z,4.40
2023-01-30T20:27:48.081Z,4.00
2023-01-30T20:32:54.538Z,4.60
2023-01-30T20:37:56.488Z,4.23
2023-01-30T20:42:58.563Z,4.37
2023-01-30T20:48:00.595Z,5.73
2023-01-30T20:53:02.701Z,4.97
2023-01-30T20:58:04.834Z,5.20
2023-01-30T21:03:06.707Z,4.10
2023-01-30T21:08:08.638Z,4.60
2023-01-30T21:13:10.740Z,4.57
2023-01-30T21:18:12.626Z,4.50
2023-01-30T21:23:14.407Z,4.83
2023-01-30T21:28:16.442Z,5.23
2023-01-30T21:33:18.405Z,4.73
2023-01-30T21:38:39.178Z,4.47
2023-01-30T21:43:41.226Z,5.43
2023-01-30T21:48:43.275Z,5.50
2023-01-30T21:53:45.498Z,5.70
2023-01-30T21:58:47.581Z,5.27
2023-01-30T22:03:49.465Z,5.40
2023-01-30T22:08:59.051Z,5.03
2023-01-30T22:14:01.146Z,5.27
2023-01-30T22:19:04.830Z,4.87
2023-01-30T22:24:08.977Z,5.47
2023-01-30T22:29:11.073Z,4.77
2023-01-30T22:34:12.992Z,5.73
2023-01-30T22:39:14.839Z,5.93
2023-01-30T22:44:16.817Z,5.63
2023-01-30T22:49:18.804Z,5.37
2023-01-30T22:54:20.884Z,5.87
2023-01-30T22:59:22.905Z,6.63
2023-01-30T23:04:24.809Z,5.53
2023-01-30T23:09:26.661Z,6.30
2023-01-30T23:14:28.509Z,5.73
2023-01-30T23:19:30.536Z,6.03
2023-01-30T23:24:32.487Z,6.13
2023-01-30T23:29:34.568Z,5.63
2023-01-30T23:34:36.648Z,5.53
2023-01-30T23:39:38.928Z,5.60
2023-01-30T23:44:41.120Z,5.30
2023-01-30T23:49:43.103Z,5.77
2023-01-30T23:54:45.010Z,5.27
2023-01-30T23:59:46.973Z,5.47
